createdAt,value
2022-09-01T00:33:07.014Z,75.23
2022-09-01T00:38:09.185Z,75.33
2022-09-01T00:43:12.266Z,75.32
2022-09-01T00:48:16.175Z,75.41
2022-09-01T00:53:18.358Z,75.40
2022-09-01T00:58:20.699Z,75.36
2022-09-01T01:03:24.178Z,75.76
2022-09-01T01:08:34.296Z,76.18
2022-09-01T01:13:55.966Z,76.31
2022-09-01T01:18:58.176Z,76.38
2022-09-01T01:24:19.598Z,76.34
2022-09-01T01:29:22.206Z,76.39
2022-09-01T01:34:26.337Z,76.52
2022-09-01T01:39:28.951Z,76.39
2022-09-01T01:44:31.152Z,76.54
2022-09-01T01:49:36.881Z,76.55
2022-09-01T01:54:39.273Z,76.86
2022-09-01T01:59:41.459Z,77.14
2022-09-01T02:04:43.668Z,77.11
2022-09-01T02:09:48.395Z,77.16
2022-09-01T02:14:50.980Z,77.22
2022-09-01T02:19:57.666Z,77.56
2022-09-01T02:25:01.186Z,77.39
2022-09-01T02:30:04.406Z,77.51
2022-09-01T02:35:10.260Z,77.69
2022-09-01T02:40:12.186Z,77.93
2022-09-01T02:45:16.576Z,78.09
2022-09-01T02:50:20.403Z,78.12
2022-09-01T02:55:23.093Z,78.11
2022-09-01T03:00:31.709Z,78.17
2022-09-01T03:05:34.667Z,78.31
2022-09-01T03:10:38.046Z,78.43
2022-09-01T03:15:40.886Z,78.52
2022-09-01T03:20:53.106Z,78.55
2022-09-01T03:25:55.353Z,78.48
2022-09-01T03:30:58.869Z,78.53
2022-09-01T03:36:01.771Z,78.79
2022-09-01T03:41:05.224Z,78.81
2022-09-01T03:46:10.187Z,78.60
2022-09-01T03:51:14.497Z,78.63
2022-09-01T03:56:16.754Z,78.88
2022-09-01T04:01:41.775Z,79.13
2022-09-01T04:06:45.292Z,79.27
2022-09-01T04:11:48.708Z,79.32
2022-09-01T04:17:10.225Z,79.62
2022-09-01T04:22:17.855Z,79.74
2022-09-01T04:27:21.986Z,79.80
2022-09-01T04:32:26.117Z,79.62
2022-09-01T04:37:30.451Z,79.43
2022-09-01T04:42:35.845Z,79.39
2022-09-01T04:47:42.167Z,79.33
2022-09-01T04:52:46.731Z,79.24
2022-09-01T04:58:01.107Z,79.19
2022-09-01T05:03:04.980Z,79.03
2022-09-01T05:08:29.039Z,78.86
2022-09-01T05:13:39.092Z,78.74
2022-09-01T05:18:45.276Z,78.36
2022-09-01T05:23:52.000Z,78.14
2022-09-01T05:28:56.638Z,77.66
2022-09-01T05:33:58.789Z,76.92
2022-09-01T05:39:01.960Z,76.30
2022-09-01T05:44:08.271Z,75.09
2022-09-01T05:49:13.731Z,74.31
2022-09-01T05:54:27.453Z,73.13
2022-09-01T05:59:34.248Z,71.95
2022-09-01T06:04:44.347Z,70.79
2022-09-01T06:09:50.941Z,70.23
2022-09-01T06:14:55.593Z,70.18
2022-09-01T06:20:05.454Z,70.11
2022-09-01T06:25:22.367Z,70.25
2022-09-01T06:30:26.723Z,70.09
2022-09-01T06:36:02.478Z,69.49
2022-09-01T06:41:06.110Z,68.89
2022-09-01T06:46:09.997Z,67.69
2022-09-01T06:51:16.602Z,66.81
2022-09-01T06:56:20.463Z,66.25
2022-09-01T07:01:24.235Z,65.95
2022-09-01T07:12:24.867Z,62.64
2022-09-01T07:17:23.600Z,61.70
2022-09-01T07:27:51.758Z,60.37
2022-09-01T07:33:41.580Z,59.99
2022-09-01T07:38:49.758Z,59.28
2022-09-01T07:44:03.374Z,59.54
2022-09-01T07:49:51.336Z,58.14
2022-09-01T07:54:47.254Z,56.80
2022-09-01T07:59:54.040Z,55.47
2022-09-01T08:05:07.503Z,55.50
2022-09-01T08:10:20.179Z,54.55
2022-09-01T08:15:41.300Z,54.83
2022-09-01T08:20:52.812Z,52.76
2022-09-01T08:26:18.779Z,53.92
2022-09-01T08:31:21.361Z,51.81
2022-09-01T08:36:25.018Z,52.69
2022-09-01T08:42:06.859Z,53.06
2022-09-01T08:47:15.281Z,52.45
2022-09-01T08:52:35.435Z,49.88
2022-09-01T08:57:41.203Z,49.57
2022-09-01T09:03:15.565Z,50.27
2022-09-01T09:08:17.385Z,50.93
2022-09-01T09:13:25.251Z,50.30
2022-09-01T09:18:54.531Z,49.81
2022-09-01T09:24:21.737Z,49.78
2022-09-01T09:29:25.499Z,48.00
2022-09-01T09:34:27.828Z,48.10
2022-09-01T09:39:49.475Z,49.14
2022-09-01T09:44:53.107Z,48.61
2022-09-01T09:50:12.303Z,48.08
2022-09-01T09:55:23.100Z,49.24
2022-09-01T10:00:29.517Z,48.00
2022-09-01T10:05:43.206Z,46.76
2022-09-01T10:10:56.456Z,47.27
2022-09-01T10:16:03.702Z,47.17
2022-09-01T10:21:16.440Z,46.88
2022-09-01T10:26:27.842Z,47.56
2022-09-01T10:31:37.358Z,45.18
2022-09-01T10:36:41.811Z,43.93
2022-09-01T10:41:44.935Z,44.48
2022-09-01T10:46:51.023Z,45.53
2022-09-01T10:51:56.638Z,45.44
2022-09-01T10:57:08.583Z,46.32
2022-09-01T11:02:28.709Z,46.39
2022-09-01T11:08:00.201Z,45.04
2022-09-01T11:13:02.670Z,44.08
2022-09-01T11:18:09.525Z,44.04
2022-09-01T11:23:22.788Z,43.78
2022-09-01T11:28:51.491Z,42.15
